sensor_id;sensor_type;location;lat;lon;timestamp;P1;durP1;ratioP1;P2;durP2;ratioP2
11671;SDS011;5892;43.412;24.612;2024-03-17T00:01:35;17.00;;;8.90;;
11671;SDS011;5892;43.412;24.612;2024-03-17T00:04:01;16.55;;;8.48;;
11671;SDS011;5892;43.412;24.612;2024-03-17T00:06:27;15.50;;;8.50;;
11671;SDS011;5892;43.412;24.612;2024-03-17T00:08:53;16.95;;;7.80;;
11671;SDS011;5892;43.412;24.612;2024-03-17T00:11:19;17.50;;;8.77;;
11671;SDS011;5892;43.412;24.612;2024-03-17T00:13:45;16.48;;;8.13;;
11671;SDS011;5892;43.412;24.612;2024-03-17T00:16:11;16.52;;;8.05;;
11671;SDS011;5892;43.412;24.612;2024-03-17T00:18:38;14.98;;;8.82;;
11671;SDS011;5892;43.412;24.612;2024-03-17T00:21:04;15.15;;;8.68;;
11671;SDS011;5892;43.412;24.612;2024-03-17T00:23:29;17.10;;;8.30;;
11671;SDS011;5892;43.412;24.612;2024-03-17T00:25:55;21.88;;;8.30;;
11671;SDS011;5892;43.412;24.612;2024-03-17T00:28:20;16.48;;;8.57;;
11671;SDS011;5892;43.412;24.612;2024-03-17T00:30:46;15.70;;;7.82;;
11671;SDS011;5892;43.412;24.612;2024-03-17T00:33:11;16.88;;;8.52;;
11671;SDS011;5892;43.412;24.612;2024-03-17T00:35:37;12.80;;;7.75;;
11671;SDS011;5892;43.412;24.612;2024-03-17T00:38:03;18.55;;;8.73;;
11671;SDS011;5892;43.412;24.612;2024-03-17T00:40:36;14.43;;;8.23;;
11671;SDS011;5892;43.412;24.612;2024-03-17T00:43:02;14.35;;;7.82;;
11671;SDS011;5892;43.412;24.612;2024-03-17T00:45:28;15.60;;;8.15;;
11671;SDS011;5892;43.412;24.612;2024-03-17T00:47:53;16.52;;;8.13;;
11671;SDS011;5892;43.412;24.612;2024-03-17T00:50:19;19.27;;;8.35;;
11671;SDS011;5892;43.412;24.612;2024-03-17T00:52:44;13.95;;;8.07;;
11671;SDS011;5892;43.412;24.612;2024-03-17T00:55:10;15.77;;;7.68;;
11671;SDS011;5892;43.412;24.612;2024-03-17T00:57:35;14.02;;;8.15;;
11671;SDS011;5892;43.412;24.612;2024-03-17T01:00:03;16.00;;;7.78;;
11671;SDS011;5892;43.412;24.612;2024-03-17T01:02:30;14.52;;;7.40;;
11671;SDS011;5892;43.412;24.612;2024-03-17T01:04:55;13.40;;;6.53;;
11671;SDS011;5892;43.412;24.612;2024-03-17T01:07:21;13.65;;;7.60;;
11671;SDS011;5892;43.412;24.612;2024-03-17T01:09:46;15.55;;;7.82;;
11671;SDS011;5892;43.412;24.612;2024-03-17T01:12:13;14.07;;;7.50;;
11671;SDS011;5892;43.412;24.612;2024-03-17T01:14:39;17.95;;;8.13;;
11671;SDS011;5892;43.412;24.612;2024-03-17T01:17:04;15.90;;;8.57;;
11671;SDS011;5892;43.412;24.612;2024-03-17T01:19:30;13.82;;;7.75;;
11671;SDS011;5892;43.412;24.612;2024-03-17T01:21:56;15.43;;;8.00;;
11671;SDS011;5892;43.412;24.612;2024-03-17T01:24:22;15.05;;;8.15;;
11671;SDS011;5892;43.412;24.612;2024-03-17T01:26:50;16.20;;;7.63;;
11671;SDS011;5892;43.412;24.612;2024-03-17T01:29:15;13.95;;;7.40;;
11671;SDS011;5892;43.412;24.612;2024-03-17T01:31:41;15.68;;;8.43;;
11671;SDS011;5892;43.412;24.612;2024-03-17T01:34:06;17.27;;;8.57;;
11671;SDS011;5892;43.412;24.612;2024-03-17T01:36:32;14.48;;;7.65;;
11671;SDS011;5892;43.412;24.612;2024-03-17T01:38:59;14.65;;;7.75;;
11671;SDS011;5892;43.412;24.612;2024-03-17T01:41:25;12.23;;;7.25;;
11671;SDS011;5892;43.412;24.612;2024-03-17T01:43:50;14.77;;;7.75;;
11671;SDS011;5892;43.412;24.612;2024-03-17T01:46:16;15.38;;;7.85;;
11671;SDS011;5892;43.412;24.612;2024-03-17T01:48:42;16.58;;;8.40;;
11671;SDS011;5892;43.412;24.612;2024-03-17T01:51:10;14.95;;;7.57;;
11671;SDS011;5892;43.412;24.612;2024-03-17T01:53:39;14.65;;;8.40;;
11671;SDS011;5892;43.412;24.612;2024-03-17T01:56:05;15.93;;;7.68;;
11671;SDS011;5892;43.412;24.612;2024-03-17T01:58:33;15.40;;;8.07;;
11671;SDS011;5892;43.412;24.612;2024-03-17T02:00:59;15.57;;;8.68;;
11671;SDS011;5892;43.412;24.612;2024-03-17T02:03:26;18.05;;;8.25;;
11671;SDS011;5892;43.412;24.612;2024-03-17T02:05:51;18.42;;;8.20;;
11671;SDS011;5892;43.412;24.612;2024-03-17T02:08:18;14.65;;;7.95;;
11671;SDS011;5892;43.412;24.612;2024-03-17T02:10:44;14.07;;;7.72;;
11671;SDS011;5892;43.412;24.612;2024-03-17T02:13:09;14.70;;;7.35;;
11671;SDS011;5892;43.412;24.612;2024-03-17T02:15:35;12.18;;;6.88;;
11671;SDS011;5892;43.412;24.612;2024-03-17T02:18:02;15.18;;;8.18;;
11671;SDS011;5892;43.412;24.612;2024-03-17T02:20:28;12.80;;;7.15;;
11671;SDS011;5892;43.412;24.612;2024-03-17T02:23:12;14.95;;;7.60;;
11671;SDS011;5892;43.412;24.612;2024-03-17T02:25:37;12.95;;;7.20;;
11671;SDS011;5892;43.412;24.612;2024-03-17T02:28:03;14.93;;;7.22;;
11671;SDS011;5892;43.412;24.612;2024-03-17T02:30:29;14.43;;;7.82;;
11671;SDS011;5892;43.412;24.612;2024-03-17T02:32:55;15.85;;;7.75;;
11671;SDS011;5892;43.412;24.612;2024-03-17T02:35:22;14.88;;;7.47;;
11671;SDS011;5892;43.412;24.612;2024-03-17T02:37:48;15.05;;;7.15;;
11671;SDS011;5892;43.412;24.612;2024-03-17T02:40:14;15.88;;;7.65;;
11671;SDS011;5892;43.412;24.612;2024-03-17T02:42:41;13.13;;;6.82;;
11671;SDS011;5892;43.412;24.612;2024-03-17T02:45:10;16.25;;;8.50;;
11671;SDS011;5892;43.412;24.612;2024-03-17T02:47:39;15.35;;;7.28;;
11671;SDS011;5892;43.412;24.612;2024-03-17T02:50:06;14.57;;;8.05;;
11671;SDS011;5892;43.412;24.612;2024-03-17T02:52:33;15.00;;;7.28;;
11671;SDS011;5892;43.412;24.612;2024-03-17T02:54:59;14.93;;;7.60;;
11671;SDS011;5892;43.412;24.612;2024-03-17T02:57:25;17.60;;;8.57;;
11671;SDS011;5892;43.412;24.612;2024-03-17T02:59:54;14.45;;;7.20;;
11671;SDS011;5892;43.412;24.612;2024-03-17T03:02:23;12.93;;;6.55;;
11671;SDS011;5892;43.412;24.612;2024-03-17T03:04:49;14.68;;;7.32;;
11671;SDS011;5892;43.412;24.612;2024-03-17T03:07:15;12.85;;;6.55;;
11671;SDS011;5892;43.412;24.612;2024-03-17T03:09:41;14.55;;;8.07;;
11671;SDS011;5892;43.412;24.612;2024-03-17T03:12:06;19.20;;;8.25;;
11671;SDS011;5892;43.412;24.612;2024-03-17T03:14:32;12.55;;;7.50;;
11671;SDS011;5892;43.412;24.612;2024-03-17T03:16:58;15.55;;;8.05;;
11671;SDS011;5892;43.412;24.612;2024-03-17T03:19:25;15.40;;;8.43;;
11671;SDS011;5892;43.412;24.612;2024-03-17T03:21:51;16.85;;;7.95;;
11671;SDS011;5892;43.412;24.612;2024-03-17T03:24:16;16.55;;;7.90;;
11671;SDS011;5892;43.412;24.612;2024-03-17T03:26:42;14.70;;;8.02;;
11671;SDS011;5892;43.412;24.612;2024-03-17T03:29:08;16.13;;;8.25;;
11671;SDS011;5892;43.412;24.612;2024-03-17T03:31:35;15.70;;;7.65;;
11671;SDS011;5892;43.412;24.612;2024-03-17T03:34:01;14.70;;;9.35;;
11671;SDS011;5892;43.412;24.612;2024-03-17T03:36:28;13.60;;;7.60;;
11671;SDS011;5892;43.412;24.612;2024-03-17T03:38:54;15.68;;;7.43;;
11671;SDS011;5892;43.412;24.612;2024-03-17T03:41:22;15.27;;;7.82;;
11671;SDS011;5892;43.412;24.612;2024-03-17T03:43:48;14.10;;;7.70;;
11671;SDS011;5892;43.412;24.612;2024-03-17T03:46:16;19.38;;;8.77;;
11671;SDS011;5892;43.412;24.612;2024-03-17T03:48:41;15.25;;;7.97;;
11671;SDS011;5892;43.412;24.612;2024-03-17T03:51:08;16.83;;;8.25;;
11671;SDS011;5892;43.412;24.612;2024-03-17T03:53:35;14.80;;;7.15;;
11671;SDS011;5892;43.412;24.612;2024-03-17T03:56:03;13.85;;;7.65;;
11671;SDS011;5892;43.412;24.612;2024-03-17T03:58:38;17.05;;;8.55;;
11671;SDS011;5892;43.412;24.612;2024-03-17T04:01:05;16.38;;;8.80;;
11671;SDS011;5892;43.412;24.612;2024-03-17T04:03:33;14.73;;;8.55;;
11671;SDS011;5892;43.412;24.612;2024-03-17T04:08:32;15.98;;;8.55;;
11671;SDS011;5892;43.412;24.612;2024-03-17T04:11:00;15.48;;;7.75;;
11671;SDS011;5892;43.412;24.612;2024-03-17T04:13:32;14.23;;;7.90;;
11671;SDS011;5892;43.412;24.612;2024-03-17T04:16:00;15.43;;;7.15;;
11671;SDS011;5892;43.412;24.612;2024-03-17T04:18:29;15.30;;;7.38;;
11671;SDS011;5892;43.412;24.612;2024-03-17T04:20:55;14.52;;;7.20;;
11671;SDS011;5892;43.412;24.612;2024-03-17T04:23:22;18.38;;;8.05;;
11671;SDS011;5892;43.412;24.612;2024-03-17T04:25:50;14.20;;;7.57;;
11671;SDS011;5892;43.412;24.612;2024-03-17T04:28:17;14.57;;;7.47;;
11671;SDS011;5892;43.412;24.612;2024-03-17T04:30:43;14.52;;;6.88;;
11671;SDS011;5892;43.412;24.612;2024-03-17T04:33:11;17.00;;;7.88;;
11671;SDS011;5892;43.412;24.612;2024-03-17T04:35:40;14.02;;;7.68;;
11671;SDS011;5892;43.412;24.612;2024-03-17T04:38:06;18.08;;;7.80;;
11671;SDS011;5892;43.412;24.612;2024-03-17T04:40:32;16.65;;;7.85;;
11671;SDS011;5892;43.412;24.612;2024-03-17T04:42:58;15.52;;;7.75;;
11671;SDS011;5892;43.412;24.612;2024-03-17T04:45:24;15.27;;;8.07;;
11671;SDS011;5892;43.412;24.612;2024-03-17T04:47:52;15.05;;;7.75;;
11671;SDS011;5892;43.412;24.612;2024-03-17T04:50:17;14.32;;;7.63;;
11671;SDS011;5892;43.412;24.612;2024-03-17T04:52:43;13.25;;;7.55;;
11671;SDS011;5892;43.412;24.612;2024-03-17T04:55:09;14.20;;;6.88;;
11671;SDS011;5892;43.412;24.612;2024-03-17T04:57:38;12.43;;;6.97;;
11671;SDS011;5892;43.412;24.612;2024-03-17T05:00:05;15.55;;;6.53;;
11671;SDS011;5892;43.412;24.612;2024-03-17T05:02:32;17.52;;;8.75;;
11671;SDS011;5892;43.412;24.612;2024-03-17T05:04:58;13.18;;;7.10;;
11671;SDS011;5892;43.412;24.612;2024-03-17T05:07:25;12.32;;;6.75;;
11671;SDS011;5892;43.412;24.612;2024-03-17T05:09:50;15.05;;;7.05;;
11671;SDS011;5892;43.412;24.612;2024-03-17T05:12:16;13.02;;;6.82;;
11671;SDS011;5892;43.412;24.612;2024-03-17T05:14:41;14.68;;;6.68;;
11671;SDS011;5892;43.412;24.612;2024-03-17T05:17:07;14.23;;;7.55;;
11671;SDS011;5892;43.412;24.612;2024-03-17T05:19:34;18.13;;;8.45;;
11671;SDS011;5892;43.412;24.612;2024-03-17T05:21:59;16.45;;;7.18;;
11671;SDS011;5892;43.412;24.612;2024-03-17T05:24:25;12.60;;;7.18;;
11671;SDS011;5892;43.412;24.612;2024-03-17T05:26:53;16.77;;;8.10;;
11671;SDS011;5892;43.412;24.612;2024-03-17T05:29:20;16.98;;;9.18;;
11671;SDS011;5892;43.412;24.612;2024-03-17T05:31:45;18.10;;;10.40;;
11671;SDS011;5892;43.412;24.612;2024-03-17T05:34:12;16.10;;;8.82;;
11671;SDS011;5892;43.412;24.612;2024-03-17T05:36:38;16.60;;;8.25;;
11671;SDS011;5892;43.412;24.612;2024-03-17T05:39:03;16.58;;;8.55;;
11671;SDS011;5892;43.412;24.612;2024-03-17T05:41:30;15.30;;;7.97;;
11671;SDS011;5892;43.412;24.612;2024-03-17T05:43:56;15.23;;;8.48;;
11671;SDS011;5892;43.412;24.612;2024-03-17T05:46:23;15.85;;;8.50;;
11671;SDS011;5892;43.412;24.612;2024-03-17T05:48:51;15.77;;;8.00;;
11671;SDS011;5892;43.412;24.612;2024-03-17T05:51:17;14.25;;;7.88;;
11671;SDS011;5892;43.412;24.612;2024-03-17T05:53:42;19.58;;;9.57;;
11671;SDS011;5892;43.412;24.612;2024-03-17T05:56:21;21.55;;;8.93;;
11671;SDS011;5892;43.412;24.612;2024-03-17T06:05:39;21.73;;;10.32;;
11671;SDS011;5892;43.412;24.612;2024-03-17T06:08:05;22.05;;;11.30;;
11671;SDS011;5892;43.412;24.612;2024-03-17T06:10:37;22.35;;;11.43;;
11671;SDS011;5892;43.412;24.612;2024-03-17T06:13:11;22.75;;;11.43;;
11671;SDS011;5892;43.412;24.612;2024-03-17T06:15:38;21.58;;;10.50;;
11671;SDS011;5892;43.412;24.612;2024-03-17T06:18:11;22.17;;;11.73;;
11671;SDS011;5892;43.412;24.612;2024-03-17T06:20:42;19.25;;;10.65;;
11671;SDS011;5892;43.412;24.612;2024-03-17T06:23:13;18.15;;;10.73;;
11671;SDS011;5892;43.412;24.612;2024-03-17T06:25:44;19.27;;;10.55;;
11671;SDS011;5892;43.412;24.612;2024-03-17T06:28:12;18.55;;;10.55;;
11671;SDS011;5892;43.412;24.612;2024-03-17T06:30:40;20.75;;;10.73;;
11671;SDS011;5892;43.412;24.612;2024-03-17T06:33:06;21.80;;;12.15;;
11671;SDS011;5892;43.412;24.612;2024-03-17T06:35:33;21.58;;;10.32;;
11671;SDS011;5892;43.412;24.612;2024-03-17T06:38:02;18.50;;;10.30;;
11671;SDS011;5892;43.412;24.612;2024-03-17T06:41:16;18.52;;;10.80;;
11671;SDS011;5892;43.412;24.612;2024-03-17T06:43:48;22.20;;;10.85;;
11671;SDS011;5892;43.412;24.612;2024-03-17T06:46:19;22.45;;;10.73;;
11671;SDS011;5892;43.412;24.612;2024-03-17T06:49:08;17.67;;;10.15;;
11671;SDS011;5892;43.412;24.612;2024-03-17T06:51:34;18.27;;;10.20;;
11671;SDS011;5892;43.412;24.612;2024-03-17T06:54:03;16.38;;;10.30;;
11671;SDS011;5892;43.412;24.612;2024-03-17T06:56:34;19.67;;;11.73;;
11671;SDS011;5892;43.412;24.612;2024-03-17T06:59:02;19.70;;;10.65;;
11671;SDS011;5892;43.412;24.612;2024-03-17T07:01:28;19.48;;;11.02;;
11671;SDS011;5892;43.412;24.612;2024-03-17T07:03:54;20.38;;;11.88;;
11671;SDS011;5892;43.412;24.612;2024-03-17T07:06:20;22.20;;;11.48;;
11671;SDS011;5892;43.412;24.612;2024-03-17T07:08:46;18.23;;;10.73;;
11671;SDS011;5892;43.412;24.612;2024-03-17T07:11:11;20.95;;;9.93;;
11671;SDS011;5892;43.412;24.612;2024-03-17T07:13:38;18.23;;;9.65;;
11671;SDS011;5892;43.412;24.612;2024-03-17T07:16:04;19.27;;;10.95;;
11671;SDS011;5892;43.412;24.612;2024-03-17T07:18:32;20.15;;;11.30;;
11671;SDS011;5892;43.412;24.612;2024-03-17T07:21:01;22.88;;;12.05;;
11671;SDS011;5892;43.412;24.612;2024-03-17T07:23:32;18.33;;;11.07;;
11671;SDS011;5892;43.412;24.612;2024-03-17T07:25:58;19.02;;;10.52;;
11671;SDS011;5892;43.412;24.612;2024-03-17T07:28:25;22.35;;;12.60;;
11671;SDS011;5892;43.412;24.612;2024-03-17T07:30:51;19.25;;;9.27;;
11671;SDS011;5892;43.412;24.612;2024-03-17T07:33:18;24.45;;;11.93;;
11671;SDS011;5892;43.412;24.612;2024-03-17T07:35:48;23.10;;;10.63;;
11671;SDS011;5892;43.412;24.612;2024-03-17T07:38:14;23.63;;;12.48;;
11671;SDS011;5892;43.412;24.612;2024-03-17T07:40:40;19.77;;;11.30;;
11671;SDS011;5892;43.412;24.612;2024-03-17T07:43:07;32.15;;;13.65;;
11671;SDS011;5892;43.412;24.612;2024-03-17T07:45:32;23.75;;;12.55;;
11671;SDS011;5892;43.412;24.612;2024-03-17T07:47:58;22.17;;;12.63;;
11671;SDS011;5892;43.412;24.612;2024-03-17T07:50:24;24.58;;;13.20;;
11671;SDS011;5892;43.412;24.612;2024-03-17T07:52:50;22.10;;;12.00;;
11671;SDS011;5892;43.412;24.612;2024-03-17T07:55:15;21.10;;;12.55;;
11671;SDS011;5892;43.412;24.612;2024-03-17T07:57:41;25.52;;;13.88;;
11671;SDS011;5892;43.412;24.612;2024-03-17T08:00:07;21.27;;;12.27;;
11671;SDS011;5892;43.412;24.612;2024-03-17T08:02:46;21.27;;;11.05;;
11671;SDS011;5892;43.412;24.612;2024-03-17T08:05:12;23.92;;;12.68;;
11671;SDS011;5892;43.412;24.612;2024-03-17T08:14:12;18.45;;;10.80;;
11671;SDS011;5892;43.412;24.612;2024-03-17T08:16:39;21.08;;;10.25;;
11671;SDS011;5892;43.412;24.612;2024-03-17T08:19:05;15.82;;;9.68;;
11671;SDS011;5892;43.412;24.612;2024-03-17T08:21:32;15.68;;;8.88;;
11671;SDS011;5892;43.412;24.612;2024-03-17T08:23:57;15.68;;;8.82;;
11671;SDS011;5892;43.412;24.612;2024-03-17T08:26:23;15.82;;;9.55;;
11671;SDS011;5892;43.412;24.612;2024-03-17T08:28:48;16.55;;;9.75;;
11671;SDS011;5892;43.412;24.612;2024-03-17T08:31:14;17.20;;;9.48;;
11671;SDS011;5892;43.412;24.612;2024-03-17T08:33:40;17.13;;;9.10;;
11671;SDS011;5892;43.412;24.612;2024-03-17T08:36:06;15.98;;;8.57;;
11671;SDS011;5892;43.412;24.612;2024-03-17T08:38:34;12.45;;;7.90;;
11671;SDS011;5892;43.412;24.612;2024-03-17T08:43:34;13.15;;;8.07;;
11671;SDS011;5892;43.412;24.612;2024-03-17T08:46:01;14.25;;;7.95;;
11671;SDS011;5892;43.412;24.612;2024-03-17T08:48:30;14.02;;;7.97;;
11671;SDS011;5892;43.412;24.612;2024-03-17T08:50:59;12.07;;;7.47;;
11671;SDS011;5892;43.412;24.612;2024-03-17T08:53:26;13.80;;;7.00;;
11671;SDS011;5892;43.412;24.612;2024-03-17T08:55:53;11.48;;;6.57;;
11671;SDS011;5892;43.412;24.612;2024-03-17T08:58:20;14.27;;;7.35;;
11671;SDS011;5892;43.412;24.612;2024-03-17T09:00:45;16.30;;;7.15;;
11671;SDS011;5892;43.412;24.612;2024-03-17T09:03:11;12.15;;;6.88;;
11671;SDS011;5892;43.412;24.612;2024-03-17T09:05:39;10.35;;;6.13;;
11671;SDS011;5892;43.412;24.612;2024-03-17T09:08:06;11.65;;;5.85;;
11671;SDS011;5892;43.412;24.612;2024-03-17T09:10:41;10.15;;;5.35;;
11671;SDS011;5892;43.412;24.612;2024-03-17T09:13:19;9.85;;;5.63;;
11671;SDS011;5892;43.412;24.612;2024-03-17T09:18:27;9.82;;;4.93;;
11671;SDS011;5892;43.412;24.612;2024-03-17T09:20:57;11.48;;;6.40;;
11671;SDS011;5892;43.412;24.612;2024-03-17T09:23:24;10.90;;;5.88;;
11671;SDS011;5892;43.412;24.612;2024-03-17T09:28:26;9.90;;;5.00;;
11671;SDS011;5892;43.412;24.612;2024-03-17T09:30:53;8.40;;;5.13;;
11671;SDS011;5892;43.412;24.612;2024-03-17T09:33:20;10.95;;;6.18;;
11671;SDS011;5892;43.412;24.612;2024-03-17T09:36:05;10.07;;;5.45;;
11671;SDS011;5892;43.412;24.612;2024-03-17T09:38:32;8.27;;;5.80;;
11671;SDS011;5892;43.412;24.612;2024-03-17T09:41:02;9.27;;;5.32;;
11671;SDS011;5892;43.412;24.612;2024-03-17T09:43:28;10.35;;;5.65;;
11671;SDS011;5892;43.412;24.612;2024-03-17T09:45:54;11.65;;;6.90;;
11671;SDS011;5892;43.412;24.612;2024-03-17T09:48:26;8.60;;;4.95;;
11671;SDS011;5892;43.412;24.612;2024-03-17T09:53:28;13.45;;;5.82;;
11671;SDS011;5892;43.412;24.612;2024-03-17T09:58:34;8.95;;;5.65;;
11671;SDS011;5892;43.412;24.612;2024-03-17T10:01:00;9.32;;;5.25;;
11671;SDS011;5892;43.412;24.612;2024-03-17T10:03:39;7.90;;;4.10;;
11671;SDS011;5892;43.412;24.612;2024-03-17T10:06:10;10.82;;;3.90;;
11671;SDS011;5892;43.412;24.612;2024-03-17T10:08:41;6.32;;;3.40;;
11671;SDS011;5892;43.412;24.612;2024-03-17T10:11:08;13.95;;;4.05;;
11671;SDS011;5892;43.412;24.612;2024-03-17T10:13:34;8.95;;;4.75;;
11671;SDS011;5892;43.412;24.612;2024-03-17T10:16:00;11.02;;;5.93;;
11671;SDS011;5892;43.412;24.612;2024-03-17T10:18:26;8.43;;;4.93;;
11671;SDS011;5892;43.412;24.612;2024-03-17T10:20:51;8.38;;;3.92;;
11671;SDS011;5892;43.412;24.612;2024-03-17T10:23:22;14.57;;;3.65;;
11671;SDS011;5892;43.412;24.612;2024-03-17T10:25:48;5.63;;;2.75;;
11671;SDS011;5892;43.412;24.612;2024-03-17T10:28:14;3.92;;;2.20;;
11671;SDS011;5892;43.412;24.612;2024-03-17T10:30:42;4.35;;;1.90;;
11671;SDS011;5892;43.412;24.612;2024-03-17T10:33:23;4.75;;;2.90;;
11671;SDS011;5892;43.412;24.612;2024-03-17T10:36:00;2.33;;;1.33;;
11671;SDS011;5892;43.412;24.612;2024-03-17T10:38:27;4.25;;;2.03;;
11671;SDS011;5892;43.412;24.612;2024-03-17T10:40:54;4.95;;;3.00;;
11671;SDS011;5892;43.412;24.612;2024-03-17T10:43:20;18.48;;;5.65;;
11671;SDS011;5892;43.412;24.612;2024-03-17T10:45:51;12.75;;;5.60;;
11671;SDS011;5892;43.412;24.612;2024-03-17T10:48:19;10.25;;;3.97;;
11671;SDS011;5892;43.412;24.612;2024-03-17T10:50:49;7.72;;;3.50;;
11671;SDS011;5892;43.412;24.612;2024-03-17T10:53:19;14.45;;;5.20;;
11671;SDS011;5892;43.412;24.612;2024-03-17T10:55:54;7.32;;;3.00;;
11671;SDS011;5892;43.412;24.612;2024-03-17T10:58:38;38.67;;;13.00;;
11671;SDS011;5892;43.412;24.612;2024-03-17T11:01:26;52.42;;;18.08;;
11671;SDS011;5892;43.412;24.612;2024-03-17T11:03:53;3.22;;;1.83;;
11671;SDS011;5892;43.412;24.612;2024-03-17T11:06:19;24.23;;;9.20;;
11671;SDS011;5892;43.412;24.612;2024-03-17T11:08:45;22.70;;;6.95;;
11671;SDS011;5892;43.412;24.612;2024-03-17T11:11:11;73.22;;;23.65;;
11671;SDS011;5892;43.412;24.612;2024-03-17T11:13:38;80.95;;;25.25;;
11671;SDS011;5892;43.412;24.612;2024-03-17T11:16:04;6.32;;;2.55;;
11671;SDS011;5892;43.412;24.612;2024-03-17T11:18:49;2.25;;;1.30;;
11671;SDS011;5892;43.412;24.612;2024-03-17T11:23:54;39.38;;;11.63;;
11671;SDS011;5892;43.412;24.612;2024-03-17T11:26:28;79.50;;;25.73;;
11671;SDS011;5892;43.412;24.612;2024-03-17T11:28:56;104.90;;;30.83;;
11671;SDS011;5892;43.412;24.612;2024-03-17T11:36:53;7.43;;;2.97;;
11671;SDS011;5892;43.412;24.612;2024-03-17T11:39:20;43.55;;;15.82;;
11671;SDS011;5892;43.412;24.612;2024-03-17T11:41:50;31.42;;;10.60;;
11671;SDS011;5892;43.412;24.612;2024-03-17T11:46:56;16.77;;;5.80;;
11671;SDS011;5892;43.412;24.612;2024-03-17T11:51:50;4.18;;;2.25;;
11671;SDS011;5892;43.412;24.612;2024-03-17T11:54:23;2.75;;;1.55;;
11671;SDS011;5892;43.412;24.612;2024-03-17T11:56:52;3.60;;;2.35;;
11671;SDS011;5892;43.412;24.612;2024-03-17T11:59:19;3.28;;;1.85;;
11671;SDS011;5892;43.412;24.612;2024-03-17T12:01:51;4.43;;;1.38;;
11671;SDS011;5892;43.412;24.612;2024-03-17T12:04:18;2.22;;;1.08;;
11671;SDS011;5892;43.412;24.612;2024-03-17T12:06:46;3.97;;;1.60;;
11671;SDS011;5892;43.412;24.612;2024-03-17T12:09:28;3.10;;;1.50;;
11671;SDS011;5892;43.412;24.612;2024-03-17T12:14:27;4.57;;;2.40;;
11671;SDS011;5892;43.412;24.612;2024-03-17T12:16:57;2.78;;;1.90;;
11671;SDS011;5892;43.412;24.612;2024-03-17T12:19:27;3.72;;;1.80;;
11671;SDS011;5892;43.412;24.612;2024-03-17T12:21:54;4.18;;;2.42;;
11671;SDS011;5892;43.412;24.612;2024-03-17T12:24:21;5.55;;;2.83;;
11671;SDS011;5892;43.412;24.612;2024-03-17T12:26:50;7.15;;;3.08;;
11671;SDS011;5892;43.412;24.612;2024-03-17T12:29:28;5.45;;;3.25;;
11671;SDS011;5892;43.412;24.612;2024-03-17T12:34:39;4.30;;;2.83;;
11671;SDS011;5892;43.412;24.612;2024-03-17T12:37:06;5.38;;;2.13;;
11671;SDS011;5892;43.412;24.612;2024-03-17T12:39:32;5.03;;;2.55;;
11671;SDS011;5892;43.412;24.612;2024-03-17T12:42:06;4.57;;;2.75;;
11671;SDS011;5892;43.412;24.612;2024-03-17T12:47:21;3.70;;;2.35;;
11671;SDS011;5892;43.412;24.612;2024-03-17T12:49:48;4.95;;;2.15;;
11671;SDS011;5892;43.412;24.612;2024-03-17T12:52:27;4.65;;;2.17;;
11671;SDS011;5892;43.412;24.612;2024-03-17T12:55:08;3.42;;;2.35;;
11671;SDS011;5892;43.412;24.612;2024-03-17T13:01:00;5.70;;;2.25;;
11671;SDS011;5892;43.412;24.612;2024-03-17T13:05:59;7.25;;;1.92;;
11671;SDS011;5892;43.412;24.612;2024-03-17T13:08:35;6.03;;;2.72;;
11671;SDS011;5892;43.412;24.612;2024-03-17T13:11:01;5.22;;;3.00;;
11671;SDS011;5892;43.412;24.612;2024-03-17T13:13:34;4.60;;;2.97;;
11671;SDS011;5892;43.412;24.612;2024-03-17T13:15:59;5.88;;;4.07;;
11671;SDS011;5892;43.412;24.612;2024-03-17T13:18:25;6.50;;;4.25;;
11671;SDS011;5892;43.412;24.612;2024-03-17T13:20:50;6.18;;;4.05;;
11671;SDS011;5892;43.412;24.612;2024-03-17T13:23:18;6.38;;;3.90;;
11671;SDS011;5892;43.412;24.612;2024-03-17T13:25:46;7.47;;;4.15;;
11671;SDS011;5892;43.412;24.612;2024-03-17T13:28:13;7.10;;;4.55;;
11671;SDS011;5892;43.412;24.612;2024-03-17T13:30:40;8.82;;;3.47;;
11671;SDS011;5892;43.412;24.612;2024-03-17T13:33:06;10.23;;;4.22;;
11671;SDS011;5892;43.412;24.612;2024-03-17T13:35:36;5.85;;;3.45;;
11671;SDS011;5892;43.412;24.612;2024-03-17T13:38:04;4.97;;;3.22;;
11671;SDS011;5892;43.412;24.612;2024-03-17T13:40:35;6.75;;;3.92;;
11671;SDS011;5892;43.412;24.612;2024-03-17T13:43:02;5.18;;;3.13;;
11671;SDS011;5892;43.412;24.612;2024-03-17T13:45:29;6.40;;;3.10;;
11671;SDS011;5892;43.412;24.612;2024-03-17T13:48:03;6.97;;;3.30;;
11671;SDS011;5892;43.412;24.612;2024-03-17T13:50:29;5.78;;;3.30;;
11671;SDS011;5892;43.412;24.612;2024-03-17T13:52:55;6.30;;;3.17;;
11671;SDS011;5892;43.412;24.612;2024-03-17T13:55:23;6.13;;;3.45;;
11671;SDS011;5892;43.412;24.612;2024-03-17T13:57:53;8.15;;;3.05;;
11671;SDS011;5892;43.412;24.612;2024-03-17T14:00:21;5.40;;;2.88;;
11671;SDS011;5892;43.412;24.612;2024-03-17T14:02:48;4.60;;;2.67;;
11671;SDS011;5892;43.412;24.612;2024-03-17T14:05:18;3.92;;;2.60;;
11671;SDS011;5892;43.412;24.612;2024-03-17T14:07:44;4.28;;;2.50;;
11671;SDS011;5892;43.412;24.612;2024-03-17T14:10:13;6.47;;;2.88;;
11671;SDS011;5892;43.412;24.612;2024-03-17T14:12:40;5.10;;;2.60;;
11671;SDS011;5892;43.412;24.612;2024-03-17T14:15:08;4.60;;;2.75;;
11671;SDS011;5892;43.412;24.612;2024-03-17T14:17:38;4.20;;;2.90;;
11671;SDS011;5892;43.412;24.612;2024-03-17T14:20:05;4.00;;;2.83;;
11671;SDS011;5892;43.412;24.612;2024-03-17T14:22:34;4.65;;;2.83;;
11671;SDS011;5892;43.412;24.612;2024-03-17T14:24:59;5.63;;;2.83;;
11671;SDS011;5892;43.412;24.612;2024-03-17T14:27:25;3.83;;;2.65;;
11671;SDS011;5892;43.412;24.612;2024-03-17T14:29:52;4.65;;;2.70;;
11671;SDS011;5892;43.412;24.612;2024-03-17T14:32:19;5.75;;;2.78;;
11671;SDS011;5892;43.412;24.612;2024-03-17T14:34:46;5.25;;;3.05;;
11671;SDS011;5892;43.412;24.612;2024-03-17T14:37:12;5.78;;;3.08;;
11671;SDS011;5892;43.412;24.612;2024-03-17T14:39:42;4.72;;;2.17;;
11671;SDS011;5892;43.412;24.612;2024-03-17T14:42:10;4.90;;;2.50;;
11671;SDS011;5892;43.412;24.612;2024-03-17T14:44:36;5.03;;;2.35;;
11671;SDS011;5892;43.412;24.612;2024-03-17T14:47:02;4.88;;;2.60;;
11671;SDS011;5892;43.412;24.612;2024-03-17T14:49:29;5.07;;;3.30;;
11671;SDS011;5892;43.412;24.612;2024-03-17T14:51:56;5.35;;;3.42;;
11671;SDS011;5892;43.412;24.612;2024-03-17T14:54:22;5.68;;;3.13;;
11671;SDS011;5892;43.412;24.612;2024-03-17T14:56:48;6.72;;;4.32;;
11671;SDS011;5892;43.412;24.612;2024-03-17T14:59:13;6.45;;;3.60;;
11671;SDS011;5892;43.412;24.612;2024-03-17T15:01:47;7.18;;;3.45;;
11671;SDS011;5892;43.412;24.612;2024-03-17T15:04:23;5.10;;;3.40;;
11671;SDS011;5892;43.412;24.612;2024-03-17T15:06:52;6.35;;;2.58;;
11671;SDS011;5892;43.412;24.612;2024-03-17T15:09:19;4.70;;;3.38;;
11671;SDS011;5892;43.412;24.612;2024-03-17T15:11:46;27.48;;;3.60;;
11671;SDS011;5892;43.412;24.612;2024-03-17T15:14:12;5.97;;;3.20;;
11671;SDS011;5892;43.412;24.612;2024-03-17T15:16:43;6.78;;;3.15;;
11671;SDS011;5892;43.412;24.612;2024-03-17T15:19:13;5.03;;;3.20;;
11671;SDS011;5892;43.412;24.612;2024-03-17T15:21:38;7.60;;;4.25;;
11671;SDS011;5892;43.412;24.612;2024-03-17T15:24:05;8.13;;;3.83;;
11671;SDS011;5892;43.412;24.612;2024-03-17T15:26:33;7.15;;;4.10;;
11671;SDS011;5892;43.412;24.612;2024-03-17T15:29:04;7.53;;;4.47;;
11671;SDS011;5892;43.412;24.612;2024-03-17T15:31:34;9.57;;;4.50;;
11671;SDS011;5892;43.412;24.612;2024-03-17T15:34:01;7.13;;;4.15;;
11671;SDS011;5892;43.412;24.612;2024-03-17T15:36:39;5.88;;;3.80;;